sensor_id;sensor_type;location;lat;lon;timestamp;pressure;altitude;pressure_sealevel;temperature;humidity
15568;BME280;7885;42.596;23.044;2023-09-18T00:01:03;93451.63;;;16.86;100.00
15568;BME280;7885;42.596;23.044;2023-09-18T00:03:31;93440.78;;;16.79;100.00
15568;BME280;7885;42.596;23.044;2023-09-18T00:05:58;93451.41;;;16.77;100.00
15568;BME280;7885;42.596;23.044;2023-09-18T00:08:25;93421.41;;;16.62;100.00
15568;BME280;7885;42.596;23.044;2023-09-18T00:10:56;93433.56;;;16.65;100.00
15568;BME280;7885;42.596;23.044;2023-09-18T00:13:26;93426.28;;;16.51;100.00
15568;BME280;7885;42.596;23.044;2023-09-18T00:15:55;93412.38;;;16.39;100.00
15568;BME280;7885;42.596;23.044;2023-09-18T00:18:25;93445.91;;;16.53;100.00
15568;BME280;7885;42.596;23.044;2023-09-18T00:20:52;93440.41;;;16.53;100.00
15568;BME280;7885;42.596;23.044;2023-09-18T00:23:19;93394.91;;;16.29;100.00
15568;BME280;7885;42.596;23.044;2023-09-18T00:25:46;93420.09;;;16.47;100.00
15568;BME280;7885;42.596;23.044;2023-09-18T00:28:14;93419.97;;;16.31;100.00
15568;BME280;7885;42.596;23.044;2023-09-18T00:30:46;93442.59;;;16.39;100.00
15568;BME280;7885;42.596;23.044;2023-09-18T00:33:13;93444.56;;;16.38;100.00
15568;BME280;7885;42.596;23.044;2023-09-18T00:35:39;93462.28;;;16.37;100.00
15568;BME280;7885;42.596;23.044;2023-09-18T00:38:06;93392.94;;;16.06;100.00
15568;BME280;7885;42.596;23.044;2023-09-18T00:40:33;93448.47;;;16.41;100.00
15568;BME280;7885;42.596;23.044;2023-09-18T00:43:00;93436.44;;;16.31;100.00
15568;BME280;7885;42.596;23.044;2023-09-18T00:45:29;93425.28;;;16.18;100.00
15568;BME280;7885;42.596;23.044;2023-09-18T00:47:56;93450.56;;;16.33;100.00
15568;BME280;7885;42.596;23.044;2023-09-18T00:50:23;93442.78;;;16.28;100.00
15568;BME280;7885;42.596;23.044;2023-09-18T00:52:50;93446.97;;;16.36;100.00
15568;BME280;7885;42.596;23.044;2023-09-18T00:55:17;93458.56;;;16.47;100.00
15568;BME280;7885;42.596;23.044;2023-09-18T00:57:44;93463.94;;;16.54;100.00
15568;BME280;7885;42.596;23.044;2023-09-18T01:00:12;93470.94;;;16.59;100.00
15568;BME280;7885;42.596;23.044;2023-09-18T01:02:42;93459.25;;;16.51;100.00
15568;BME280;7885;42.596;23.044;2023-09-18T01:05:10;93465.88;;;16.57;100.00
15568;BME280;7885;42.596;23.044;2023-09-18T01:07:37;93459.63;;;16.53;100.00
15568;BME280;7885;42.596;23.044;2023-09-18T01:10:18;93472.16;;;16.58;100.00
15568;BME280;7885;42.596;23.044;2023-09-18T01:12:52;93454.59;;;16.25;100.00
15568;BME280;7885;42.596;23.044;2023-09-18T01:15:25;93461.28;;;16.24;100.00
15568;BME280;7885;42.596;23.044;2023-09-18T01:17:54;93460.59;;;16.20;100.00
15568;BME280;7885;42.596;23.044;2023-09-18T01:20:21;93420.25;;;15.90;100.00
15568;BME280;7885;42.596;23.044;2023-09-18T01:22:49;93457.94;;;16.13;100.00
15568;BME280;7885;42.596;23.044;2023-09-18T01:25:16;93468.56;;;16.11;100.00
15568;BME280;7885;42.596;23.044;2023-09-18T01:27:43;93467.13;;;16.03;100.00
15568;BME280;7885;42.596;23.044;2023-09-18T01:30:11;93441.06;;;15.88;100.00
15568;BME280;7885;42.596;23.044;2023-09-18T01:32:38;93467.94;;;16.00;100.00
15568;BME280;7885;42.596;23.044;2023-09-18T01:35:07;93465.66;;;15.95;100.00
15568;BME280;7885;42.596;23.044;2023-09-18T01:37:35;93463.03;;;15.88;100.00
15568;BME280;7885;42.596;23.044;2023-09-18T01:40:06;93457.69;;;15.77;100.00
15568;BME280;7885;42.596;23.044;2023-09-18T01:42:34;93440.09;;;15.75;100.00
15568;BME280;7885;42.596;23.044;2023-09-18T01:45:01;93439.34;;;15.71;100.00
15568;BME280;7885;42.596;23.044;2023-09-18T01:47:30;93426.47;;;15.68;100.00
15568;BME280;7885;42.596;23.044;2023-09-18T01:49:57;93451.91;;;15.72;100.00
15568;BME280;7885;42.596;23.044;2023-09-18T01:52:24;93474.34;;;15.90;100.00
15568;BME280;7885;42.596;23.044;2023-09-18T01:54:51;93474.25;;;15.97;100.00
15568;BME280;7885;42.596;23.044;2023-09-18T01:57:19;93446.25;;;15.82;100.00
15568;BME280;7885;42.596;23.044;2023-09-18T01:59:46;93460.38;;;15.81;100.00
15568;BME280;7885;42.596;23.044;2023-09-18T02:02:13;93459.56;;;15.84;100.00
15568;BME280;7885;42.596;23.044;2023-09-18T02:04:40;93475.88;;;15.94;100.00
15568;BME280;7885;42.596;23.044;2023-09-18T02:07:07;93471.09;;;15.98;100.00
15568;BME280;7885;42.596;23.044;2023-09-18T02:09:34;93449.53;;;15.97;100.00
15568;BME280;7885;42.596;23.044;2023-09-18T02:12:01;93474.97;;;16.01;100.00
15568;BME280;7885;42.596;23.044;2023-09-18T02:14:31;93462.19;;;15.91;100.00
15568;BME280;7885;42.596;23.044;2023-09-18T02:16:58;93463.03;;;15.88;100.00
15568;BME280;7885;42.596;23.044;2023-09-18T02:19:25;93484.50;;;15.93;100.00
15568;BME280;7885;42.596;23.044;2023-09-18T02:21:52;93487.19;;;15.96;100.00
15568;BME280;7885;42.596;23.044;2023-09-18T02:24:19;93484.44;;;15.96;100.00
15568;BME280;7885;42.596;23.044;2023-09-18T02:26:45;93486.75;;;16.01;100.00
15568;BME280;7885;42.596;23.044;2023-09-18T02:29:12;93467.59;;;15.98;100.00
15568;BME280;7885;42.596;23.044;2023-09-18T02:31:41;93487.88;;;16.04;100.00
15568;BME280;7885;42.596;23.044;2023-09-18T02:34:08;93483.94;;;16.05;100.00
15568;BME280;7885;42.596;23.044;2023-09-18T02:36:35;93488.25;;;16.06;100.00
15568;BME280;7885;42.596;23.044;2023-09-18T02:39:02;93484.31;;;16.07;100.00
15568;BME280;7885;42.596;23.044;2023-09-18T02:41:29;93467.88;;;16.03;100.00
15568;BME280;7885;42.596;23.044;2023-09-18T02:43:56;93430.59;;;15.79;100.00
15568;BME280;7885;42.596;23.044;2023-09-18T02:46:23;93463.28;;;15.97;100.00
15568;BME280;7885;42.596;23.044;2023-09-18T02:48:51;93437.59;;;15.84;100.00
15568;BME280;7885;42.596;23.044;2023-09-18T02:51:18;93477.28;;;16.06;100.00
15568;BME280;7885;42.596;23.044;2023-09-18T02:53:45;93439.66;;;15.76;100.00
15568;BME280;7885;42.596;23.044;2023-09-18T02:56:12;93463.44;;;15.86;100.00
15568;BME280;7885;42.596;23.044;2023-09-18T02:58:39;93473.59;;;15.89;100.00
15568;BME280;7885;42.596;23.044;2023-09-18T03:01:06;93352.41;;;15.07;100.00
15568;BME280;7885;42.596;23.044;2023-09-18T03:03:33;93484.59;;;15.89;100.00
15568;BME280;7885;42.596;23.044;2023-09-18T03:06:02;93485.34;;;15.90;100.00
15568;BME280;7885;42.596;23.044;2023-09-18T03:08:29;93469.34;;;15.85;100.00
15568;BME280;7885;42.596;23.044;2023-09-18T03:10:56;93482.91;;;15.95;100.00
15568;BME280;7885;42.596;23.044;2023-09-18T03:13:23;93457.88;;;15.90;100.00
15568;BME280;7885;42.596;23.044;2023-09-18T03:15:50;93465.66;;;15.95;100.00
15568;BME280;7885;42.596;23.044;2023-09-18T03:18:17;93431.75;;;15.82;100.00
15568;BME280;7885;42.596;23.044;2023-09-18T03:20:43;93424.81;;;15.74;100.00
15568;BME280;7885;42.596;23.044;2023-09-18T03:23:12;93477.44;;;15.95;100.00
15568;BME280;7885;42.596;23.044;2023-09-18T03:25:39;93461.94;;;15.82;100.00
15568;BME280;7885;42.596;23.044;2023-09-18T03:28:06;93462.69;;;15.86;100.00
15568;BME280;7885;42.596;23.044;2023-09-18T03:30:33;93472.03;;;15.88;100.00
15568;BME280;7885;42.596;23.044;2023-09-18T03:33:00;93472.09;;;15.85;100.00
15568;BME280;7885;42.596;23.044;2023-09-18T03:35:30;93455.88;;;15.67;100.00
15568;BME280;7885;42.596;23.044;2023-09-18T03:37:57;93465.53;;;15.79;100.00
15568;BME280;7885;42.596;23.044;2023-09-18T03:40:25;93467.44;;;15.82;100.00
15568;BME280;7885;42.596;23.044;2023-09-18T03:42:52;93466.66;;;15.81;100.00
15568;BME280;7885;42.596;23.044;2023-09-18T03:45:19;93432.06;;;15.60;100.00
15568;BME280;7885;42.596;23.044;2023-09-18T03:47:46;93459.66;;;15.77;100.00
15568;BME280;7885;42.596;23.044;2023-09-18T03:50:15;93452.19;;;15.77;100.00
15568;BME280;7885;42.596;23.044;2023-09-18T03:52:42;93469.41;;;15.81;100.00
15568;BME280;7885;42.596;23.044;2023-09-18T03:55:09;93465.88;;;15.81;100.00
15568;BME280;7885;42.596;23.044;2023-09-18T03:57:39;93454.94;;;15.77;100.00
15568;BME280;7885;42.596;23.044;2023-09-18T04:00:06;93462.41;;;15.77;100.00
15568;BME280;7885;42.596;23.044;2023-09-18T04:02:33;93467.06;;;15.80;100.00
15568;BME280;7885;42.596;23.044;2023-09-18T04:05:01;93467.53;;;15.75;100.00
15568;BME280;7885;42.596;23.044;2023-09-18T04:07:29;93467.16;;;15.73;100.00
15568;BME280;7885;42.596;23.044;2023-09-18T04:09:56;93417.81;;;15.39;100.00
15568;BME280;7885;42.596;23.044;2023-09-18T04:12:23;93473.84;;;15.72;100.00
15568;BME280;7885;42.596;23.044;2023-09-18T04:14:51;93471.06;;;15.75;100.00
15568;BME280;7885;42.596;23.044;2023-09-18T04:17:18;93476.63;;;15.68;100.00
15568;BME280;7885;42.596;23.044;2023-09-18T04:19:46;93459.88;;;15.59;100.00
15568;BME280;7885;42.596;23.044;2023-09-18T04:22:13;93422.22;;;15.33;100.00
15568;BME280;7885;42.596;23.044;2023-09-18T04:24:40;93429.56;;;15.39;100.00
15568;BME280;7885;42.596;23.044;2023-09-18T04:27:07;93470.72;;;15.70;100.00
15568;BME280;7885;42.596;23.044;2023-09-18T04:29:34;93466.19;;;15.56;100.00
15568;BME280;7885;42.596;23.044;2023-09-18T04:32:03;93488.84;;;15.63;100.00
15568;BME280;7885;42.596;23.044;2023-09-18T04:34:31;93483.34;;;15.63;100.00
15568;BME280;7885;42.596;23.044;2023-09-18T04:36:58;93475.16;;;15.60;100.00
15568;BME280;7885;42.596;23.044;2023-09-18T04:39:24;93490.63;;;15.77;100.00
15568;BME280;7885;42.596;23.044;2023-09-18T04:41:51;93488.66;;;15.78;100.00
15568;BME280;7885;42.596;23.044;2023-09-18T04:44:18;93438.88;;;15.45;100.00
15568;BME280;7885;42.596;23.044;2023-09-18T04:46:45;93488.91;;;15.87;100.00
15568;BME280;7885;42.596;23.044;2023-09-18T04:49:13;93494.72;;;15.92;100.00
15568;BME280;7885;42.596;23.044;2023-09-18T04:51:41;93480.69;;;15.87;100.00
15568;BME280;7885;42.596;23.044;2023-09-18T04:54:07;93448.31;;;15.75;100.00
15568;BME280;7885;42.596;23.044;2023-09-18T04:56:34;93430.66;;;15.76;100.00
15568;BME280;7885;42.596;23.044;2023-09-18T04:59:01;93438.44;;;15.81;100.00
15568;BME280;7885;42.596;23.044;2023-09-18T05:01:29;93497.69;;;16.05;100.00
15568;BME280;7885;42.596;23.044;2023-09-18T05:03:56;93474.31;;;15.93;100.00
15568;BME280;7885;42.596;23.044;2023-09-18T05:06:24;93474.97;;;16.01;100.00
15568;BME280;7885;42.596;23.044;2023-09-18T05:08:51;93497.09;;;16.17;100.00
15568;BME280;7885;42.596;23.044;2023-09-18T05:11:18;93489.69;;;16.14;100.00
15568;BME280;7885;42.596;23.044;2023-09-18T05:13:45;93498.78;;;16.34;100.00
15568;BME280;7885;42.596;23.044;2023-09-18T05:16:12;93502.63;;;16.40;100.00
15568;BME280;7885;42.596;23.044;2023-09-18T05:18:39;93500.69;;;16.41;100.00
15568;BME280;7885;42.596;23.044;2023-09-18T05:21:07;93508.66;;;16.55;100.00
15568;BME280;7885;42.596;23.044;2023-09-18T05:23:36;93493.06;;;16.48;100.00
15568;BME280;7885;42.596;23.044;2023-09-18T05:26:03;93498.56;;;16.48;100.00
15568;BME280;7885;42.596;23.044;2023-09-18T05:28:30;93502.31;;;16.61;100.00
15568;BME280;7885;42.596;23.044;2023-09-18T05:30:57;93504.97;;;16.69;100.00
15568;BME280;7885;42.596;23.044;2023-09-18T05:33:24;93500.66;;;16.67;100.00
15568;BME280;7885;42.596;23.044;2023-09-18T05:35:50;93490.72;;;16.74;100.00
15568;BME280;7885;42.596;23.044;2023-09-18T05:38:17;93499.84;;;16.90;100.00
15568;BME280;7885;42.596;23.044;2023-09-18T05:40:46;93483.78;;;16.89;100.00
15568;BME280;7885;42.596;23.044;2023-09-18T05:43:13;93492.97;;;17.02;100.00
15568;BME280;7885;42.596;23.044;2023-09-18T05:45:40;93495.94;;;17.11;100.00
15568;BME280;7885;42.596;23.044;2023-09-18T05:48:08;93507.47;;;17.26;100.00
15568;BME280;7885;42.596;23.044;2023-09-18T05:50:35;93513.22;;;17.31;100.00
15568;BME280;7885;42.596;23.044;2023-09-18T05:53:02;93467.59;;;17.14;100.00
15568;BME280;7885;42.596;23.044;2023-09-18T05:55:30;93497.94;;;17.30;100.00
15568;BME280;7885;42.596;23.044;2023-09-18T05:57:59;93511.34;;;17.48;100.00
15568;BME280;7885;42.596;23.044;2023-09-18T06:00:26;93515.22;;;17.50;100.00
15568;BME280;7885;42.596;23.044;2023-09-18T06:02:53;93496.09;;;17.43;100.00
15568;BME280;7885;42.596;23.044;2023-09-18T06:05:21;93492.22;;;17.41;100.00
15568;BME280;7885;42.596;23.044;2023-09-18T06:14:32;93515.66;;;17.49;100.00
15568;BME280;7885;42.596;23.044;2023-09-18T06:17:00;93513.47;;;17.40;100.00
15568;BME280;7885;42.596;23.044;2023-09-18T06:19:27;93520.44;;;17.45;100.00
15568;BME280;7885;42.596;23.044;2023-09-18T06:21:54;93507.25;;;17.36;100.00
15568;BME280;7885;42.596;23.044;2023-09-18T06:24:21;93512.03;;;17.52;100.00
15568;BME280;7885;42.596;23.044;2023-09-18T06:26:47;93492.50;;;17.46;100.00
15568;BME280;7885;42.596;23.044;2023-09-18T06:29:16;93511.72;;;17.70;100.00
15568;BME280;7885;42.596;23.044;2023-09-18T06:31:44;93488.66;;;17.63;100.00
15568;BME280;7885;42.596;23.044;2023-09-18T06:34:11;93505.06;;;17.87;100.00
15568;BME280;7885;42.596;23.044;2023-09-18T06:36:38;93516.06;;;18.06;100.00
15568;BME280;7885;42.596;23.044;2023-09-18T06:39:04;93488.75;;;17.96;100.00
15568;BME280;7885;42.596;23.044;2023-09-18T06:41:31;93516.41;;;18.25;100.00
15568;BME280;7885;42.596;23.044;2023-09-18T06:43:58;93508.59;;;18.39;100.00
15568;BME280;7885;42.596;23.044;2023-09-18T06:46:28;93512.72;;;18.51;100.00
15568;BME280;7885;42.596;23.044;2023-09-18T06:48:56;93506.34;;;18.54;100.00
15568;BME280;7885;42.596;23.044;2023-09-18T06:51:26;93521.59;;;18.75;100.00
15568;BME280;7885;42.596;23.044;2023-09-18T06:53:53;93514.16;;;18.88;100.00
15568;BME280;7885;42.596;23.044;2023-09-18T06:56:22;93512.41;;;18.94;100.00
15568;BME280;7885;42.596;23.044;2023-09-18T06:58:49;93527.06;;;19.07;100.00
15568;BME280;7885;42.596;23.044;2023-09-18T07:01:16;93509.94;;;18.99;100.00
15568;BME280;7885;42.596;23.044;2023-09-18T07:03:44;93522.22;;;19.11;100.00
15568;BME280;7885;42.596;23.044;2023-09-18T07:06:20;93441.44;;;18.65;100.00
15568;BME280;7885;42.596;23.044;2023-09-18T07:08:49;93522.63;;;19.26;100.00
15568;BME280;7885;42.596;23.044;2023-09-18T07:11:16;93498.91;;;19.28;100.00
15568;BME280;7885;42.596;23.044;2023-09-18T07:13:43;93508.56;;;19.36;100.00
15568;BME280;7885;42.596;23.044;2023-09-18T07:16:10;93513.91;;;19.43;100.00
15568;BME280;7885;42.596;23.044;2023-09-18T07:18:38;93521.91;;;19.54;100.00
15568;BME280;7885;42.596;23.044;2023-09-18T07:21:05;93515.63;;;19.53;100.00
15568;BME280;7885;42.596;23.044;2023-09-18T07:23:33;93508.53;;;19.52;100.00
15568;BME280;7885;42.596;23.044;2023-09-18T07:26:02;93516.97;;;19.61;100.00
15568;BME280;7885;42.596;23.044;2023-09-18T07:28:29;93524.59;;;19.70;100.00
15568;BME280;7885;42.596;23.044;2023-09-18T07:30:56;93525.19;;;19.78;100.00
15568;BME280;7885;42.596;23.044;2023-09-18T07:33:22;93508.72;;;19.45;100.00
15568;BME280;7885;42.596;23.044;2023-09-18T07:35:50;93513.84;;;19.59;100.00
15568;BME280;7885;42.596;23.044;2023-09-18T07:38:17;93518.31;;;19.70;100.00
15568;BME280;7885;42.596;23.044;2023-09-18T07:40:46;93511.75;;;19.51;100.00
15568;BME280;7885;42.596;23.044;2023-09-18T07:43:13;93524.81;;;19.63;100.00
15568;BME280;7885;42.596;23.044;2023-09-18T07:45:40;93530.16;;;19.83;100.00
15568;BME280;7885;42.596;23.044;2023-09-18T07:48:07;93536.84;;;19.98;100.00
15568;BME280;7885;42.596;23.044;2023-09-18T07:50:34;93508.50;;;19.81;100.00
15568;BME280;7885;42.596;23.044;2023-09-18T07:53:01;93539.41;;;20.17;100.00
15568;BME280;7885;42.596;23.044;2023-09-18T07:55:28;93542.66;;;20.29;99.75
15568;BME280;7885;42.596;23.044;2023-09-18T07:57:57;93547.19;;;20.35;99.72
15568;BME280;7885;42.596;23.044;2023-09-18T08:00:24;93526.06;;;20.29;100.00
15568;BME280;7885;42.596;23.044;2023-09-18T08:02:53;93546.09;;;20.45;99.01
15568;BME280;7885;42.596;23.044;2023-09-18T08:05:24;93541.81;;;20.57;97.85
15568;BME280;7885;42.596;23.044;2023-09-18T08:07:53;93519.94;;;20.97;96.22
15568;BME280;7885;42.596;23.044;2023-09-18T08:10:21;93528.41;;;21.96;91.73
15568;BME280;7885;42.596;23.044;2023-09-18T08:12:48;93546.41;;;23.24;85.27
15568;BME280;7885;42.596;23.044;2023-09-18T08:15:18;93540.81;;;25.11;78.54
15568;BME280;7885;42.596;23.044;2023-09-18T08:17:45;93523.09;;;27.47;68.23
15568;BME280;7885;42.596;23.044;2023-09-18T08:20:13;93528.00;;;29.64;59.35
15568;BME280;7885;42.596;23.044;2023-09-18T08:22:41;93538.91;;;30.85;52.98
15568;BME280;7885;42.596;23.044;2023-09-18T08:25:09;93529.81;;;30.31;53.93
15568;BME280;7885;42.596;23.044;2023-09-18T08:27:37;93523.78;;;30.61;52.71
15568;BME280;7885;42.596;23.044;2023-09-18T08:30:06;93524.06;;;31.18;52.52
15568;BME280;7885;42.596;23.044;2023-09-18T08:32:36;93504.41;;;31.07;51.16
15568;BME280;7885;42.596;23.044;2023-09-18T08:35:04;93506.13;;;31.38;49.46
15568;BME280;7885;42.596;23.044;2023-09-18T08:37:31;93516.44;;;32.15;47.64
15568;BME280;7885;42.596;23.044;2023-09-18T08:39:57;93518.94;;;34.14;43.93
15568;BME280;7885;42.596;23.044;2023-09-18T08:42:25;93522.75;;;36.13;38.85
15568;BME280;7885;42.596;23.044;2023-09-18T08:44:54;93506.56;;;36.61;36.20
15568;BME280;7885;42.596;23.044;2023-09-18T08:47:23;93506.75;;;38.00;32.54
15568;BME280;7885;42.596;23.044;2023-09-18T08:49:51;93519.41;;;39.14;29.47
15568;BME280;7885;42.596;23.044;2023-09-18T08:52:20;93506.94;;;40.01;29.00
15568;BME280;7885;42.596;23.044;2023-09-18T08:54:49;93483.28;;;40.38;27.25
15568;BME280;7885;42.596;23.044;2023-09-18T08:57:16;93477.06;;;40.79;25.97
15568;BME280;7885;42.596;23.044;2023-09-18T08:59:44;93447.66;;;41.26;25.34
15568;BME280;7885;42.596;23.044;2023-09-18T09:02:11;93511.94;;;42.17;24.79
15568;BME280;7885;42.596;23.044;2023-09-18T09:04:38;93498.31;;;42.42;24.17
15568;BME280;7885;42.596;23.044;2023-09-18T09:07:06;93474.66;;;42.42;23.58
15568;BME280;7885;42.596;23.044;2023-09-18T09:09:34;93487.47;;;42.58;23.41
15568;BME280;7885;42.596;23.044;2023-09-18T09:12:02;93500.34;;;41.90;24.32
15568;BME280;7885;42.596;23.044;2023-09-18T09:14:28;93461.69;;;41.89;23.97
15568;BME280;7885;42.596;23.044;2023-09-18T09:16:56;93489.25;;;42.36;23.84
15568;BME280;7885;42.596;23.044;2023-09-18T09:19:31;93484.75;;;42.60;23.13
15568;BME280;7885;42.596;23.044;2023-09-18T09:21:58;93475.16;;;41.96;23.54
15568;BME280;7885;42.596;23.044;2023-09-18T09:24:41;93485.88;;;41.39;24.61
15568;BME280;7885;42.596;23.044;2023-09-18T09:27:09;93488.56;;;41.37;24.51
15568;BME280;7885;42.596;23.044;2023-09-18T09:29:36;93477.22;;;41.54;25.00
15568;BME280;7885;42.596;23.044;2023-09-18T09:32:13;93472.63;;;42.17;23.63
15568;BME280;7885;42.596;23.044;2023-09-18T09:34:41;93473.19;;;40.92;24.87
15568;BME280;7885;42.596;23.044;2023-09-18T09:37:08;93469.09;;;41.43;24.95
15568;BME280;7885;42.596;23.044;2023-09-18T09:39:48;93467.16;;;41.95;23.84
15568;BME280;7885;42.596;23.044;2023-09-18T09:42:16;93455.16;;;41.14;24.25
15568;BME280;7885;42.596;23.044;2023-09-18T09:45:02;93460.44;;;41.25;24.65
15568;BME280;7885;42.596;23.044;2023-09-18T09:47:33;93422.03;;;40.79;24.85
15568;BME280;7885;42.596;23.044;2023-09-18T09:50:06;93437.00;;;40.95;24.89
15568;BME280;7885;42.596;23.044;2023-09-18T09:52:47;93435.69;;;41.20;26.38
15568;BME280;7885;42.596;23.044;2023-09-18T09:55:29;93443.34;;;41.92;24.14
15568;BME280;7885;42.596;23.044;2023-09-18T09:57:57;93423.72;;;42.57;23.49
15568;BME280;7885;42.596;23.044;2023-09-18T10:00:31;93445.72;;;43.25;22.65
15568;BME280;7885;42.596;23.044;2023-09-18T10:03:04;93432.66;;;43.78;22.69
15568;BME280;7885;42.596;23.044;2023-09-18T10:05:32;93437.59;;;44.23;21.99
15568;BME280;7885;42.596;23.044;2023-09-18T10:08:03;93441.84;;;44.61;20.86
15568;BME280;7885;42.596;23.044;2023-09-18T10:10:35;93432.75;;;44.36;20.60
15568;BME280;7885;42.596;23.044;2023-09-18T10:13:10;93429.63;;;43.76;21.37
15568;BME280;7885;42.596;23.044;2023-09-18T10:15:39;93419.53;;;43.02;21.75
15568;BME280;7885;42.596;23.044;2023-09-18T10:18:17;93382.31;;;42.85;21.76
15568;BME280;7885;42.596;23.044;2023-09-18T10:20:47;93408.69;;;42.40;22.58
15568;BME280;7885;42.596;23.044;2023-09-18T10:23:34;93397.31;;;41.98;22.37
15568;BME280;7885;42.596;23.044;2023-09-18T10:26:07;93399.69;;;41.50;22.99
15568;BME280;7885;42.596;23.044;2023-09-18T10:28:35;93396.47;;;41.21;23.79
15568;BME280;7885;42.596;23.044;2023-09-18T10:31:03;93397.81;;;40.15;24.46
15568;BME280;7885;42.596;23.044;2023-09-18T10:33:32;93384.19;;;40.38;24.63
15568;BME280;7885;42.596;23.044;2023-09-18T10:35:59;93365.63;;;40.62;25.20
15568;BME280;7885;42.596;23.044;2023-09-18T10:38:29;93367.13;;;39.76;24.97
15568;BME280;7885;42.596;23.044;2023-09-18T10:40:57;93346.00;;;37.27;27.86
15568;BME280;7885;42.596;23.044;2023-09-18T10:43:26;93363.00;;;35.51;31.08
15568;BME280;7885;42.596;23.044;2023-09-18T10:45:53;93318.88;;;33.94;33.97
15568;BME280;7885;42.596;23.044;2023-09-18T10:48:22;93370.72;;;34.34;35.23
15568;BME280;7885;42.596;23.044;2023-09-18T10:50:50;93368.81;;;34.23;36.76
15568;BME280;7885;42.596;23.044;2023-09-18T10:53:18;93343.47;;;33.62;35.59
15568;BME280;7885;42.596;23.044;2023-09-18T10:55:45;93351.81;;;33.00;36.25
15568;BME280;7885;42.596;23.044;2023-09-18T10:58:23;93315.28;;;33.37;35.04
15568;BME280;7885;42.596;23.044;2023-09-18T11:00:53;93357.91;;;33.34;35.20
15568;BME280;7885;42.596;23.044;2023-09-18T11:03:22;93355.34;;;34.29;33.85
15568;BME280;7885;42.596;23.044;2023-09-18T11:06:02;93346.38;;;34.76;32.14
15568;BME280;7885;42.596;23.044;2023-09-18T11:08:31;93334.25;;;35.46;30.72
15568;BME280;7885;42.596;23.044;2023-09-18T11:11:03;93309.31;;;35.32;30.85
15568;BME280;7885;42.596;23.044;2023-09-18T11:13:36;93334.94;;;35.13;31.66
15568;BME280;7885;42.596;23.044;2023-09-18T11:16:15;93332.59;;;34.85;30.96
15568;BME280;7885;42.596;23.044;2023-09-18T11:18:42;93325.09;;;35.27;30.85
15568;BME280;7885;42.596;23.044;2023-09-18T11:21:12;93324.56;;;35.68;30.07
15568;BME280;7885;42.596;23.044;2023-09-18T11:23:42;93320.44;;;35.43;29.83
15568;BME280;7885;42.596;23.044;2023-09-18T11:26:10;93326.19;;;34.98;32.83
15568;BME280;7885;42.596;23.044;2023-09-18T11:28:37;93322.81;;;34.55;31.77
15568;BME280;7885;42.596;23.044;2023-09-18T11:31:06;93325.06;;;33.92;31.23
15568;BME280;7885;42.596;23.044;2023-09-18T11:33:37;93321.94;;;33.96;31.21
15568;BME280;7885;42.596;23.044;2023-09-18T11:36:06;93317.34;;;33.93;32.75
15568;BME280;7885;42.596;23.044;2023-09-18T11:38:34;93316.72;;;34.00;33.40
15568;BME280;7885;42.596;23.044;2023-09-18T11:41:20;93320.91;;;34.63;31.81
15568;BME280;7885;42.596;23.044;2023-09-18T11:43:47;93203.06;;;33.94;31.68
15568;BME280;7885;42.596;23.044;2023-09-18T11:46:19;93308.81;;;33.80;32.27
15568;BME280;7885;42.596;23.044;2023-09-18T11:48:47;93307.97;;;32.50;34.62
15568;BME280;7885;42.596;23.044;2023-09-18T11:51:21;93291.81;;;31.39;37.19
15568;BME280;7885;42.596;23.044;2023-09-18T11:53:51;93302.41;;;31.22;38.38
15568;BME280;7885;42.596;23.044;2023-09-18T11:56:20;93302.75;;;31.60;37.93
15568;BME280;7885;42.596;23.044;2023-09-18T11:58:47;93233.31;;;32.03;35.94
15568;BME280;7885;42.596;23.044;2023-09-18T12:01:14;93279.63;;;33.34;34.41
15568;BME280;7885;42.596;23.044;2023-09-18T12:03:43;93281.22;;;34.23;31.99
15568;BME280;7885;42.596;23.044;2023-09-18T12:06:10;93248.38;;;34.78;28.85
15568;BME280;7885;42.596;23.044;2023-09-18T12:08:39;93297.66;;;35.48;28.84
15568;BME280;7885;42.596;23.044;2023-09-18T12:11:06;93294.72;;;35.54;28.87
15568;BME280;7885;42.596;23.044;2023-09-18T12:13:33;93258.69;;;35.41;28.10
15568;BME280;7885;42.596;23.044;2023-09-18T12:16:01;93279.13;;;35.74;27.65
15568;BME280;7885;42.596;23.044;2023-09-18T12:18:30;93274.56;;;35.44;27.52
15568;BME280;7885;42.596;23.044;2023-09-18T12:21:01;93258.88;;;35.57;27.26
15568;BME280;7885;42.596;23.044;2023-09-18T12:23:36;93285.13;;;35.70;27.83
15568;BME280;7885;42.596;23.044;2023-09-18T12:26:04;93274.34;;;35.56;27.26
15568;BME280;7885;42.596;23.044;2023-09-18T12:28:33;93286.69;;;35.32;27.81
15568;BME280;7885;42.596;23.044;2023-09-18T12:30:59;93199.41;;;34.83;27.99
15568;BME280;7885;42.596;23.044;2023-09-18T12:33:33;93232.47;;;35.28;26.41
15568;BME280;7885;42.596;23.044;2023-09-18T12:36:02;93256.09;;;35.43;27.16
15568;BME280;7885;42.596;23.044;2023-09-18T12:38:30;93266.78;;;35.37;28.15
15568;BME280;7885;42.596;23.044;2023-09-18T12:40:57;93267.53;;;35.25;27.03
15568;BME280;7885;42.596;23.044;2023-09-18T12:43:34;93270.94;;;35.23;28.45
15568;BME280;7885;42.596;23.044;2023-09-18T12:46:01;93260.25;;;35.29;29.10
15568;BME280;7885;42.596;23.044;2023-09-18T12:48:29;93264.25;;;35.47;28.12
15568;BME280;7885;42.596;23.044;2023-09-18T12:51:03;93249.50;;;35.62;27.19
15568;BME280;7885;42.596;23.044;2023-09-18T12:53:30;93249.88;;;35.32;27.58
15568;BME280;7885;42.596;23.044;2023-09-18T12:56:05;93250.66;;;34.80;28.31
15568;BME280;7885;42.596;23.044;2023-09-18T12:58:32;93243.44;;;34.53;28.12
15568;BME280;7885;42.596;23.044;2023-09-18T13:01:04;93236.22;;;34.07;28.74
15568;BME280;7885;42.596;23.044;2023-09-18T13:03:33;93218.94;;;33.46;29.22
15568;BME280;7885;42.596;23.044;2023-09-18T13:09:23;93251.72;;;33.49;30.42
15568;BME280;7885;42.596;23.044;2023-09-18T13:11:54;93246.25;;;33.20;30.71